Time;durP1;ratioP1;P1;durP2;ratioP2;P2;SDS_P1;SDS_P2;PMS_P1;PMS_P2;Temp;Humidity;BMP_temperature;BMP_pressure;BME280_temperature;BME280_humidity;BME280_pressure;Samples;Min_cycle;Max_cycle;Signal;HPM_P1;HPM_P2
2021/09/03 00:02:09;;;;;;;8.02;6.80;;;14.00;99.90;;;;;;6164632;28;20038;-81
2021/09/03 00:05:12;;;;;;;8.18;7.28;;;14.00;99.90;;;;;;6148152;28;20445;-82
2021/09/03 00:08:13;;;;;;;8.57;6.97;;;;;;;;;;6148584;28;20038;-84
2021/09/03 00:11:14;;;;;;;11.32;7.65;;;13.90;99.90;;;;;;6180965;28;20097;-83
2021/09/03 00:14:14;;;;;;;8.80;7.35;;;13.80;99.90;;;;;;6180605;28;20057;-84
2021/09/03 00:17:15;;;;;;;8.23;7.05;;;13.80;99.90;;;;;;6164228;28;20034;-82
2021/09/03 00:20:16;;;;;;;11.48;7.68;;;13.50;99.90;;;;;;6164299;28;20030;-82
2021/09/03 00:23:16;;;;;;;9.85;7.32;;;13.90;99.90;;;;;;6163833;28;20030;-83
2021/09/03 00:26:17;;;;;;;8.73;7.75;;;13.50;99.90;;;;;;6198046;28;20050;-82
2021/09/03 00:29:18;;;;;;;10.57;7.05;;;13.70;99.90;;;;;;6164063;28;20038;-81
2021/09/03 00:32:18;;;;;;;8.27;7.22;;;13.50;99.90;;;;;;6164024;28;20037;-81
2021/09/03 00:35:19;;;;;;;7.93;6.50;;;;;;;;;;6179564;28;20034;-83
2021/09/03 00:38:20;;;;;;;9.98;6.80;;;;;;;;;;6179639;28;20080;-82
2021/09/03 00:41:21;;;;;;;8.18;6.68;;;13.60;99.90;;;;;;6179696;28;20039;-81
2021/09/03 00:44:21;;;;;;;7.88;6.50;;;13.30;99.90;;;;;;6163355;28;20113;-81
2021/09/03 00:47:22;;;;;;;8.57;6.82;;;;;;;;;;6179466;28;20392;-82
2021/09/03 00:50:23;;;;;;;7.78;6.40;;;;;;;;;;6179169;28;20053;-82
2021/09/03 00:53:24;;;;;;;8.25;6.63;;;;;;;;;;6179686;28;20014;-83
2021/09/03 00:56:25;;;;;;;8.80;7.25;;;13.20;99.90;;;;;;6179090;28;20026;-81
2021/09/03 00:59:25;;;;;;;9.05;6.72;;;13.40;99.90;;;;;;6163441;28;20426;-81
2021/09/03 01:02:26;;;;;;;9.10;7.45;;;13.30;99.90;;;;;;6179758;28;20085;-83
2021/09/03 01:05:27;;;;;;;9.63;7.32;;;;;;;;;;6179483;28;20066;-82
2021/09/03 01:08:28;;;;;;;8.52;6.97;;;13.10;99.90;;;;;;6178954;28;20042;-81
2021/09/03 01:11:29;;;;;;;9.00;6.97;;;;;;;;;;6162880;28;20084;-81
2021/09/03 01:14:30;;;;;;;10.65;8.05;;;;;;;;;;6178976;28;20042;-83
2021/09/03 01:17:31;;;;;;;10.30;7.63;;;13.30;99.90;;;;;;6178817;28;20484;-81
2021/09/03 01:20:32;;;;;;;8.52;7.05;;;;;;;;;;6162862;28;20030;-83
2021/09/03 01:23:32;;;;;;;10.63;7.13;;;13.10;99.90;;;;;;6178612;28;20035;-82
2021/09/03 01:26:33;;;;;;;9.90;7.03;;;;;;;;;;6162737;28;20849;-82
2021/09/03 01:29:34;;;;;;;8.45;7.28;;;;;;;;;;6178507;28;20827;-82
2021/09/03 01:32:35;;;;;;;9.57;7.75;;;;;;;;;;6178589;28;20034;-80
2021/09/03 01:35:36;;;;;;;10.00;8.65;;;;;;;;;;6195991;28;20041;-81
2021/09/03 01:38:37;;;;;;;9.65;7.55;;;12.90;99.90;;;;;;6178012;28;20386;-81
2021/09/03 01:41:38;;;;;;;9.90;7.43;;;13.00;99.90;;;;;;6178578;28;20034;-82
2021/09/03 01:44:38;;;;;;;9.25;7.35;;;13.00;99.90;;;;;;6161730;28;20030;-81
2021/09/03 01:47:39;;;;;;;11.38;7.43;;;12.90;99.90;;;;;;6177850;28;20465;-81
2021/09/03 01:50:39;;;;;;;12.35;7.50;;;13.00;99.90;;;;;;6162134;28;20121;-83
2021/09/03 01:53:40;;;;;;;9.65;7.70;;;;;;;;;;6145919;28;20037;-81
2021/09/03 01:56:41;;;;;;;9.00;7.20;;;;;;;;;;6177570;28;20180;-82
2021/09/03 01:59:42;;;;;;;8.05;7.22;;;;;;;;;;6177975;28;20023;-81
2021/09/03 02:02:43;;;;;;;8.38;7.55;;;13.10;99.90;;;;;;6178155;28;20049;-81
2021/09/03 02:05:44;;;;;;;10.20;7.95;;;13.00;99.90;;;;;;6177548;28;20400;-83
2021/09/03 02:08:44;;;;;;;9.35;7.75;;;12.60;99.90;;;;;;6145737;28;20088;-82
2021/09/03 02:11:45;;;;;;;8.05;6.78;;;;;;;;;;6145573;28;20030;-81
2021/09/03 02:14:46;;;;;;;9.80;7.63;;;12.90;99.90;;;;;;6195723;28;20061;-82
2021/09/03 02:17:47;;;;;;;9.75;7.72;;;;;;;;;;6161370;28;20026;-81
2021/09/03 02:20:47;;;;;;;11.88;8.15;;;12.70;99.90;;;;;;6178026;28;20018;-81
2021/09/03 02:23:48;;;;;;;10.30;8.23;;;12.50;99.90;;;;;;6145264;28;20032;-81
2021/09/03 02:26:48;;;;;;;10.10;7.32;;;12.60;99.90;;;;;;6177489;28;20044;-81
2021/09/03 02:29:49;;;;;;;9.43;7.60;;;12.70;99.90;;;;;;6145057;28;20081;-81
2021/09/03 02:32:50;;;;;;;10.23;7.22;;;12.60;99.90;;;;;;6160911;28;20088;-81
2021/09/03 02:35:50;;;;;;;8.68;7.60;;;12.70;99.90;;;;;;6161006;28;20027;-81
2021/09/03 02:38:51;;;;;;;10.43;7.72;;;12.70;99.90;;;;;;6176735;28;20034;-82
2021/09/03 02:41:51;;;;;;;9.05;7.72;;;12.70;99.90;;;;;;6177151;28;20109;-83
2021/09/03 02:44:52;;;;;;;10.70;7.88;;;12.70;99.90;;;;;;6160863;28;20424;-81
2021/09/03 02:47:52;;;;;;;7.95;7.05;;;12.60;99.90;;;;;;6144931;28;20121;-82
2021/09/03 02:50:53;;;;;;;9.63;7.50;;;12.40;99.90;;;;;;6144715;28;20045;-81
2021/09/03 02:53:54;;;;;;;8.75;7.13;;;;;;;;;;6145051;28;20057;-81
2021/09/03 02:56:55;;;;;;;8.35;7.30;;;12.60;99.90;;;;;;6177137;28;20049;-81
2021/09/03 02:59:55;;;;;;;11.18;8.32;;;12.40;99.90;;;;;;6165666;28;20019;-82
2021/09/03 03:02:58;;;;;;;9.00;7.68;;;12.60;99.90;;;;;;6165927;28;20353;-81
2021/09/03 03:05:58;;;;;;;8.80;7.50;;;12.80;99.90;;;;;;6165481;28;20442;-81
2021/09/03 03:08:59;;;;;;;8.48;7.22;;;;;;;;;;6165534;28;20034;-83
2021/09/03 03:12:00;;;;;;;10.70;8.55;;;12.70;99.90;;;;;;6181546;28;20314;-82
2021/09/03 03:15:01;;;;;;;9.00;7.25;;;;;;;;;;6149601;28;20038;-82
2021/09/03 03:18:01;;;;;;;9.55;7.55;;;12.60;99.90;;;;;;6181661;28;20069;-81
2021/09/03 03:21:02;;;;;;;10.32;8.18;;;;;;;;;;6165584;28;20062;-81
2021/09/03 03:24:03;;;;;;;10.73;8.57;;;12.50;99.90;;;;;;6181738;28;20034;-82
2021/09/03 03:27:04;;;;;;;9.80;7.40;;;;;;;;;;6165089;28;20052;-82
2021/09/03 03:30:05;;;;;;;9.52;7.88;;;12.20;99.90;;;;;;6181352;28;20030;-82
2021/09/03 03:33:06;;;;;;;11.45;7.57;;;12.40;99.90;;;;;;6165045;28;20372;-81
2021/09/03 03:36:07;;;;;;;10.43;8.13;;;;;;;;;;6148857;28;20050;-82
2021/09/03 03:39:07;;;;;;;9.55;7.60;;;12.50;99.90;;;;;;6181153;28;20084;-82
2021/09/03 03:42:08;;;;;;;9.25;7.70;;;12.30;99.90;;;;;;6164793;28;20030;-81
2021/09/03 03:45:09;;;;;;;10.23;8.10;;;12.20;99.90;;;;;;6164668;28;20077;-81
2021/09/03 03:48:10;;;;;;;9.18;7.47;;;12.30;99.90;;;;;;6164907;28;20050;-81
2021/09/03 03:51:11;;;;;;;13.65;8.13;;;;;;;;;;6164427;28;20041;-80
2021/09/03 03:54:11;;;;;;;7.72;6.93;;;11.90;99.90;;;;;;6181011;28;20026;-81
2021/09/03 03:57:12;;;;;;;8.35;6.90;;;11.90;99.90;;;;;;6198391;28;20030;-82
2021/09/03 04:00:15;;;;;;;8.80;6.97;;;11.80;99.90;;;;;;6180533;28;21057;-83
2021/09/03 04:03:16;;;;;;;12.02;7.65;;;11.80;99.90;;;;;;6181012;28;20033;-84
2021/09/03 04:06:17;;;;;;;10.10;7.43;;;11.80;99.90;;;;;;6164647;28;20030;-81
2021/09/03 04:09:17;;;;;;;8.98;7.75;;;11.70;99.90;;;;;;6164017;28;20034;-81
2021/09/03 04:12:18;;;;;;;8.77;7.22;;;11.80;99.90;;;;;;6164673;28;20026;-82
2021/09/03 04:15:18;;;;;;;11.10;7.60;;;11.80;99.90;;;;;;6164559;28;20037;-81
2021/09/03 04:18:19;;;;;;;8.82;7.47;;;;;;;;;;6148218;28;20481;-81
2021/09/03 04:21:20;;;;;;;10.35;7.88;;;11.70;99.90;;;;;;6180471;28;20041;-81
2021/09/03 04:24:21;;;;;;;8.70;7.35;;;;;;;;;;6179940;28;20041;-81
2021/09/03 04:27:22;;;;;;;9.52;7.30;;;;;;;;;;6179843;28;20034;-82
2021/09/03 04:30:22;;;;;;;9.40;7.35;;;11.90;99.90;;;;;;6180087;28;20502;-83
2021/09/03 04:33:23;;;;;;;9.48;7.15;;;;;;;;;;6163814;28;20037;-83
2021/09/03 04:36:24;;;;;;;10.50;6.75;;;11.70;99.90;;;;;;6179919;28;20046;-81
2021/09/03 04:39:25;;;;;;;8.38;6.82;;;;;;;;;;6163719;28;20380;-81
2021/09/03 04:42:26;;;;;;;10.20;7.30;;;11.70;99.90;;;;;;6180058;28;20049;-82
2021/09/03 04:45:27;;;;;;;8.85;6.72;;;;;;;;;;6163624;28;20045;-80
2021/09/03 04:48:27;;;;;;;9.38;7.20;;;11.60;99.90;;;;;;6178936;28;20031;-83
2021/09/03 04:51:28;;;;;;;8.63;7.72;;;;;;;;;;6163279;28;20361;-82
2021/09/03 04:54:29;;;;;;;9.38;7.03;;;11.50;99.90;;;;;;6178878;28;20651;-82
2021/09/03 04:57:30;;;;;;;10.18;7.15;;;;;;;;;;6179381;28;20042;-79
2021/09/03 05:00:30;;;;;;;8.80;7.30;;;11.80;99.90;;;;;;6178853;28;20038;-78
2021/09/03 05:03:31;;;;;;;8.80;6.45;;;11.90;99.90;;;;;;6163259;28;20026;-79
2021/09/03 05:06:35;;;;;;;11.48;7.63;;;11.80;99.90;;;;;;6162633;28;20165;-77
2021/09/03 05:10:13;;;;;;;8.30;6.90;;;11.70;99.90;;;;;;6162490;28;20026;-77
2021/09/03 05:13:14;;;;;;;8.57;7.63;;;;;;;;;;6194032;28;20033;-78
2021/09/03 05:16:15;;;;;;;8.95;7.22;;;;;;;;;;6196205;28;20452;-77
2021/09/03 05:19:15;;;;;;;9.10;8.20;;;12.20;99.90;;;;;;6196253;28;20073;-78
2021/09/03 05:22:16;;;;;;;8.82;7.45;;;11.90;99.90;;;;;;6195447;28;20449;-78
2021/09/03 05:25:17;;;;;;;9.90;7.60;;;;;;;;;;6195606;28;20156;-78
2021/09/03 05:28:18;;;;;;;9.80;7.38;;;;;;;;;;6178147;28;20472;-77
2021/09/03 05:31:22;;;;;;;10.63;7.18;;;13.60;99.90;;;;;;6195800;28;20015;-81
2021/09/03 05:34:23;;;;;;;8.70;6.82;;;14.10;99.90;;;;;;6162657;28;20077;-79
2021/09/03 05:37:24;;;;;;;8.90;6.60;;;14.40;99.90;;;;;;6161713;28;20480;-79
2021/09/03 05:40:24;;;;;;;10.65;7.10;;;;;;;;;;6178150;28;20504;-80
2021/09/03 05:43:25;;;;;;;9.57;6.57;;;15.20;99.90;;;;;;6195729;28;20022;-78
2021/09/03 05:46:26;;;;;;;9.20;6.93;;;15.50;99.90;;;;;;6178523;28;20145;-78
2021/09/03 05:49:26;;;;;;;9.25;6.75;;;15.30;99.90;;;;;;6161932;28;20496;-77
2021/09/03 05:52:27;;;;;;;7.70;6.68;;;15.60;99.90;;;;;;6194238;28;20388;-79
2021/09/03 05:55:27;;;;;;;7.93;6.57;;;16.20;99.90;;;;;;6177590;28;20054;-78
2021/09/03 05:58:28;;;;;;;8.63;6.63;;;16.30;99.90;;;;;;6177193;28;20030;-78
2021/09/03 06:01:29;;;;;;;9.70;6.70;;;16.60;99.90;;;;;;6162173;28;20733;-78
2021/09/03 06:04:29;;;;;;;9.35;7.43;;;16.50;99.90;;;;;;6177523;28;20096;-78
2021/09/03 06:07:30;;;;;;;9.60;6.85;;;17.30;99.90;;;;;;6177489;28;20038;-79
2021/09/03 06:10:32;;;;;;;9.27;6.78;;;17.40;99.90;;;;;;6194760;28;20042;-79
2021/09/03 06:13:33;;;;;;;8.13;7.15;;;17.80;99.90;;;;;;6177136;28;20027;-79
2021/09/03 06:16:33;;;;;;;7.57;6.72;;;17.90;99.90;;;;;;6161632;28;20030;-77
2021/09/03 06:19:34;;;;;;;8.15;6.70;;;18.00;99.90;;;;;;6161111;28;20026;-78
2021/09/03 06:22:35;;;;;;;8.93;7.15;;;17.60;99.90;;;;;;6160669;28;20077;-78
2021/09/03 06:25:35;;;;;;;7.55;6.10;;;17.80;99.90;;;;;;6176117;28;20120;-79
2021/09/03 06:28:36;;;;;;;7.38;6.22;;;18.00;99.90;;;;;;6144333;28;20042;-79
2021/09/03 06:31:37;;;;;;;7.63;6.13;;;18.50;99.90;;;;;;6176167;28;20022;-79
2021/09/03 06:34:39;;;;;;;8.48;6.10;;;19.00;99.90;;;;;;6177161;28;20369;-79
2021/09/03 06:37:40;;;;;;;;;;;19.40;99.90;;;;;;6160879;28;20070;-78
2021/09/03 06:40:40;;;;;;;8.93;6.57;;;19.90;99.90;;;;;;6176109;28;20444;-78
2021/09/03 06:43:41;;;;;;;7.00;5.78;;;20.20;99.90;;;;;;6176876;28;20031;-78
2021/09/03 06:46:41;;;;;;;8.32;6.47;;;20.40;99.90;;;;;;6194171;28;20081;-79
2021/09/03 06:49:42;;;;;;;10.15;6.78;;;20.60;99.90;;;;;;6160092;28;20043;-78
2021/09/03 06:52:43;;;;;;;8.25;6.03;;;20.80;99.60;;;;;;6176427;28;20042;-79
2021/09/03 06:55:44;;;;;;;7.47;6.47;;;21.70;99.90;;;;;;6143938;28;20117;-80
2021/09/03 06:58:45;;;;;;;8.15;5.75;;;21.70;99.90;;;;;;6159763;28;20080;-80
2021/09/03 07:01:45;;;;;;;6.63;5.93;;;22.30;99.90;;;;;;6176177;28;20077;-79
2021/09/03 07:04:46;;;;;;;7.25;5.93;;;22.50;99.90;;;;;;6176328;28;20341;-81
2021/09/03 07:07:47;;;;;;;8.35;6.10;;;22.90;99.90;;;;;;6175924;28;20045;-80
2021/09/03 07:10:47;;;;;;;9.48;6.10;;;23.40;99.90;;;;;;6160300;28;20030;-80
2021/09/03 07:13:48;;;;;;;8.85;6.07;;;;;;;;;;6143681;28;20420;-81
2021/09/03 07:16:49;;;;;;;5.70;5.18;;;;;;;;;;6176224;28;20080;-80
2021/09/03 07:19:50;;;;;;;6.95;6.07;;;;;;;;;;6175993;28;20262;-80
2021/09/03 07:22:51;;;;;;;6.88;5.68;;;24.40;99.90;;;;;;6176417;28;20026;-80
2021/09/03 07:25:51;;;;;;;14.82;6.00;;;24.90;99.90;;;;;;6176359;28;20053;-81
2021/09/03 07:28:53;;;;;;;6.00;5.17;;;;;;;;;;6160382;28;20341;-82
2021/09/03 07:31:54;;;;;;;7.50;6.30;;;;;;;;;;6175991;28;20026;-81
2021/09/03 07:34:55;;;;;;;6.50;5.70;;;25.10;91.70;;;;;;6175926;28;20033;-79
2021/09/03 07:37:56;;;;;;;6.63;5.97;;;;;;;;;;6193151;28;20054;-80
2021/09/03 07:40:57;;;;;;;6.03;5.43;;;25.10;83.30;;;;;;6193763;28;20066;-80
2021/09/03 07:43:58;;;;;;;7.18;5.95;;;25.30;83.20;;;;;;6177900;28;20150;-80
2021/09/03 07:46:59;;;;;;;7.07;6.17;;;25.70;82.60;;;;;;6161867;28;20049;-81
2021/09/03 07:49:59;;;;;;;7.67;5.30;;;26.50;82.10;;;;;;6180637;28;20041;-79
2021/09/03 07:53:03;;;;;;;7.53;5.77;;;26.90;80.20;;;;;;6198218;28;20125;-81
2021/09/03 07:56:04;;;;;;;7.03;6.18;;;27.30;79.20;;;;;;6164544;28;20022;-82
2021/09/03 07:59:04;;;;;;;7.35;6.00;;;27.60;75.90;;;;;;6164328;28;20113;-81
2021/09/03 08:02:05;;;;;;;9.30;6.83;;;27.70;74.50;;;;;;6197071;28;20038;-80
2021/09/03 08:05:06;;;;;;;6.77;5.57;;;28.20;75.30;;;;;;6179866;28;20022;-82
2021/09/03 08:08:06;;;;;;;6.43;5.73;;;28.80;72.00;;;;;;6162681;28;20069;-82
2021/09/03 08:11:10;;;;;;;6.33;5.73;;;28.90;71.60;;;;;;6163206;28;20076;-81
2021/09/03 08:14:10;;;;;;;6.22;5.18;;;29.00;71.50;;;;;;6163872;28;20369;-83
2021/09/03 08:17:11;;;;;;;8.00;6.43;;;29.30;65.40;;;;;;6179135;28;20030;-83
2021/09/03 08:20:13;;;;;;;7.63;6.00;;;29.10;83.70;;;;;;6162399;28;20030;-82
2021/09/03 08:23:14;;;;;;;7.93;6.38;;;29.10;68.40;;;;;;6179366;28;20033;-83
2021/09/03 08:26:15;;;;;;;7.53;6.07;;;30.20;68.80;;;;;;6177842;28;20097;-84
2021/09/03 08:29:16;;;;;;;9.07;6.60;;;;;;;;;;6164202;28;20073;-83
2021/09/03 08:32:16;;;;;;;7.28;6.45;;;29.50;65.00;;;;;;6178932;28;20125;-82
2021/09/03 08:35:17;;;;;;;7.83;6.27;;;29.50;68.10;;;;;;6162196;28;20042;-84
2021/09/03 08:38:18;;;;;;;9.67;5.70;;;29.60;67.40;;;;;;6162730;28;20536;-83
2021/09/03 08:41:18;;;;;;;8.87;6.17;;;29.60;67.80;;;;;;6162918;28;20412;-83
2021/09/03 08:44:19;;;;;;;7.37;6.33;;;29.60;66.00;;;;;;6162286;28;20388;-83
2021/09/03 08:47:20;;;;;;;10.37;7.00;;;;;;;;;;6146267;28;20499;-85
2021/09/03 08:50:21;;;;;;;;;;;29.80;66.10;;;;;;6179408;28;20030;-83
2021/09/03 08:53:22;;;;;;;7.60;5.70;;;;;;;;;;6178521;28;19912;-83
2021/09/03 08:56:23;;;;;;;8.77;6.15;;;29.90;65.70;;;;;;6177375;28;20109;-84
2021/09/03 08:59:23;;;;;;;7.90;6.50;;;30.00;66.70;;;;;;6161617;28;20084;-84
2021/09/03 09:02:24;;;;;;;7.30;6.60;;;30.20;66.10;;;;;;6161793;28;20033;-83
2021/09/03 09:05:48;;;;;;;9.10;6.43;;;30.40;65.00;;;;;;6178652;28;20034;-83
2021/09/03 09:08:57;;;;;;;7.78;6.50;;;30.50;64.50;;;;;;6195306;28;20030;-84
2021/09/03 09:12:04;;;;;;;8.52;6.75;;;30.70;64.10;;;;;;6162534;28;20021;-86
2021/09/03 09:15:06;;;;;;;7.53;6.28;;;30.60;63.80;;;;;;6178813;28;20030;-85
2021/09/03 09:18:07;;;;;;;7.57;6.43;;;30.70;64.00;;;;;;6177342;28;20022;-85
2021/09/03 09:21:23;;;;;;;8.27;6.53;;;30.90;63.80;;;;;;6160722;28;20037;-85
2021/09/03 09:24:24;;;;;;;9.23;6.32;;;31.00;63.80;;;;;;6194557;28;20368;-86
2021/09/03 09:27:26;;;;;;;9.63;6.20;;;31.00;65.80;;;;;;6161233;28;20030;-86
2021/09/03 09:30:28;;;;;;;7.15;6.45;;;31.00;63.00;;;;;;6161858;28;20030;-86
2021/09/03 09:33:28;;;;;;;8.18;6.35;;;30.90;63.60;;;;;;6145132;28;20041;-86
2021/09/03 09:36:34;;;;;;;6.72;6.03;;;31.10;65.10;;;;;;6161767;28;20058;-85
2021/09/03 09:39:49;;;;;;;8.32;6.85;;;31.00;63.60;;;;;;6178677;28;20042;-86
2021/09/03 09:42:49;;;;;;;7.75;6.50;;;30.90;64.70;;;;;;6146292;28;20030;-85
2021/09/03 09:46:17;;;;;;;8.50;6.47;;;30.90;65.80;;;;;;6144806;28;20268;-85
2021/09/03 09:49:17;;;;;;;8.88;6.22;;;30.80;63.90;;;;;;6177857;28;20046;-83
2021/09/03 09:52:18;;;;;;;8.77;6.00;;;31.40;80.60;;;;;;6145007;28;20018;-82
2021/09/03 09:55:19;;;;;;;9.07;6.87;;;30.90;64.60;;;;;;6160361;28;20479;-81
2021/09/03 09:58:19;;;;;;;8.10;6.07;;;31.10;65.40;;;;;;6161268;28;20449;-83
2021/09/03 10:01:20;;;;;;;8.75;6.65;;;30.90;63.70;;;;;;6160198;28;20439;-82
2021/09/03 10:04:24;;;;;;;7.85;6.88;;;30.80;64.60;;;;;;6176756;28;20468;-82
2021/09/03 10:07:25;;;;;;;9.38;6.85;;;31.00;63.80;;;;;;6160821;28;20042;-79
2021/09/03 10:10:25;;;;;;;7.72;6.55;;;30.80;64.60;;;;;;6144202;28;20440;-79
2021/09/03 10:13:26;;;;;;;10.20;7.23;;;31.00;64.20;;;;;;6161235;28;20039;-79
2021/09/03 10:16:27;;;;;;;8.68;6.70;;;31.00;64.60;;;;;;6177611;28;20030;-79
2021/09/03 10:19:35;;;;;;;8.60;6.90;;;31.00;63.80;;;;;;6161007;28;20045;-80
2021/09/03 10:22:43;;;;;;;6.88;6.18;;;31.20;64.50;;;;;;6162676;28;20030;-79
2021/09/03 10:26:01;;;;;;;12.27;6.45;;;31.10;65.80;;;;;;6177505;28;20060;-79
2021/09/03 10:29:11;;;;;;;10.02;7.13;;;31.10;66.00;;;;;;6144908;28;20046;-80
2021/09/03 10:32:20;;;;;;;9.23;7.68;;;30.80;65.30;;;;;;6191824;28;20037;-81
2021/09/03 10:35:21;;;;;;;8.27;6.95;;;30.40;65.30;;;;;;6193028;28;20022;-81
2021/09/03 10:38:29;;;;;;;9.18;6.63;;;29.60;78.10;;;;;;6176546;28;20050;-80
2021/09/03 10:41:49;;;;;;;8.32;6.65;;;30.00;67.00;;;;;;6160783;28;20450;-81
2021/09/03 10:45:02;;;;;;;8.95;7.85;;;30.30;67.50;;;;;;6144353;28;20147;-80
2021/09/03 10:48:03;;;;;;;8.25;7.20;;;30.50;67.40;;;;;;6192518;28;20042;-80
2021/09/03 10:51:04;;;;;;;10.50;7.43;;;30.30;66.50;;;;;;6175837;28;20030;-80
2021/09/03 10:54:15;;;;;;;7.88;6.30;;;30.30;66.70;;;;;;6194115;28;20547;-79
2021/09/03 10:57:16;;;;;;;7.43;6.72;;;30.10;67.40;;;;;;6176666;28;20487;-79
2021/09/03 11:00:20;;;;;;;8.13;6.80;;;30.20;67.90;;;;;;6176643;28;20031;-80
2021/09/03 11:03:43;;;;;;;7.88;7.07;;;30.10;92.10;;;;;;6144174;28;20104;-80
2021/09/03 11:06:58;;;;;;;9.20;6.88;;;30.20;90.80;;;;;;6176550;28;20125;-81
2021/09/03 11:09:58;;;;;;;7.45;6.22;;;30.10;65.60;;;;;;6160514;28;20484;-80
2021/09/03 11:13:01;;;;;;;10.00;7.00;;;30.00;75.50;;;;;;6143803;28;20121;-80
2021/09/03 11:16:02;;;;;;;10.73;6.22;;;30.10;66.20;;;;;;6176583;28;20028;-79
2021/09/03 11:19:04;;;;;;;7.78;6.43;;;30.10;68.60;;;;;;6177672;28;20026;-79
2021/09/03 11:22:14;;;;;;;8.98;6.63;;;30.10;66.30;;;;;;6180033;28;20117;-80
2021/09/03 11:25:15;;;;;;;7.10;6.40;;;30.00;66.20;;;;;;6164648;28;20022;-79
2021/09/03 11:28:15;;;;;;;9.13;6.80;;;30.00;66.60;;;;;;6197961;28;20478;-82
2021/09/03 11:31:16;;;;;;;7.27;6.57;;;30.20;67.50;;;;;;6165310;28;20022;-79
2021/09/03 11:34:17;;;;;;;7.55;6.82;;;30.20;67.70;;;;;;6198451;28;20577;-79
2021/09/03 11:37:27;;;;;;;9.87;6.43;;;30.10;66.80;;;;;;6198178;28;20073;-78
2021/09/03 11:40:31;;;;;;;8.02;6.72;;;29.90;66.60;;;;;;6181397;28;20077;-85
2021/09/03 11:43:31;;;;;;;11.48;7.10;;;29.70;68.30;;;;;;6164680;28;20216;-81
2021/09/03 11:46:32;;;;;;;7.50;6.67;;;29.90;66.70;;;;;;6164039;28;20046;-81
2021/09/03 11:49:33;;;;;;;7.90;6.60;;;29.70;66.60;;;;;;6164355;28;20042;-82
2021/09/03 11:52:34;;;;;;;9.40;6.93;;;29.60;69.90;;;;;;6164208;28;20115;-82
2021/09/03 11:55:36;;;;;;;8.23;6.00;;;29.50;69.30;;;;;;6180563;28;20027;-81
2021/09/03 11:58:37;;;;;;;6.95;5.93;;;29.60;68.70;;;;;;6164688;28;20041;-82
2021/09/03 12:01:38;;;;;;;7.03;6.40;;;29.70;68.80;;;;;;6163838;28;20023;-83
2021/09/03 12:04:38;;;;;;;10.67;6.60;;;29.90;69.50;;;;;;6163569;28;20040;-82
2021/09/03 12:07:39;;;;;;;7.43;6.70;;;29.60;69.70;;;;;;6145926;28;20038;-85
2021/09/03 12:10:41;;;;;;;12.17;6.77;;;30.30;71.50;;;;;;6164115;28;20041;-87
2021/09/03 12:13:43;;;;;;;9.27;6.78;;;29.60;69.60;;;;;;6162695;28;20053;-83
2021/09/03 12:16:44;;;;;;;8.48;6.82;;;29.40;69.10;;;;;;6178682;28;20027;-79
2021/09/03 12:19:44;;;;;;;7.70;6.35;;;29.10;69.90;;;;;;6143797;28;20026;-80
2021/09/03 12:22:47;;;;;;;6.63;5.93;;;29.00;69.80;;;;;;6177703;28;20041;-80
2021/09/03 12:25:48;;;;;;;6.97;5.60;;;;;;;;;;6179007;28;20022;-80
2021/09/03 12:28:53;;;;;;;8.73;6.88;;;28.70;68.10;;;;;;6197465;28;20084;-79
2021/09/03 12:31:54;;;;;;;7.32;6.60;;;28.70;69.00;;;;;;6147845;28;20034;-83
2021/09/03 12:34:58;;;;;;;8.35;7.55;;;28.30;92.30;;;;;;6179851;28;20042;-82
2021/09/03 12:38:00;;;;;;;7.03;6.00;;;28.00;92.50;;;;;;6163241;28;20053;-79
2021/09/03 12:41:03;;;;;;;;;;;28.10;68.60;;;;;;6197650;28;20465;-80
2021/09/03 12:44:06;;;;;;;6.50;5.90;;;27.90;68.60;;;;;;6197316;28;19917;-78
2021/09/03 12:47:07;;;;;;;6.28;5.68;;;28.30;84.60;;;;;;6197085;28;20070;-78
2021/09/03 12:50:14;;;;;;;12.27;6.23;;;28.30;69.80;;;;;;6167326;28;20022;-79
2021/09/03 12:53:19;;;;;;;6.50;5.22;;;28.20;69.40;;;;;;6181267;28;20026;-78
2021/09/03 12:56:21;;;;;;;6.60;5.32;;;28.40;67.70;;;;;;6179603;28;20035;-78
2021/09/03 12:59:22;;;;;;;6.35;5.75;;;28.70;69.50;;;;;;6163447;28;20081;-78
2021/09/03 13:02:22;;;;;;;7.43;6.60;;;28.80;68.90;;;;;;6196819;28;20026;-78
2021/09/03 13:05:23;;;;;;;7.87;5.73;;;28.80;67.90;;;;;;6179125;28;20483;-78
2021/09/03 13:08:23;;;;;;;6.23;5.20;;;28.80;66.90;;;;;;6179263;28;20038;-77
2021/09/03 13:11:24;;;;;;;5.87;5.30;;;28.80;66.00;;;;;;6179431;28;20026;-78
2021/09/03 13:14:25;;;;;;;6.50;5.40;;;28.70;66.80;;;;;;6196633;28;20509;-78
2021/09/03 13:17:25;;;;;;;9.17;5.70;;;28.70;66.20;;;;;;6163122;28;20385;-78
2021/09/03 13:20:26;;;;;;;9.50;5.97;;;28.70;80.60;;;;;;6196423;28;20022;-78
2021/09/03 13:23:27;;;;;;;8.87;6.13;;;28.60;65.60;;;;;;6162986;28;20165;-77
2021/09/03 13:26:28;;;;;;;6.85;5.53;;;28.50;64.90;;;;;;6162572;28;20121;-78
2021/09/03 13:29:28;;;;;;;9.25;7.03;;;28.30;66.70;;;;;;6179027;28;20026;-78
2021/09/03 13:32:29;;;;;;;6.40;5.53;;;28.20;68.00;;;;;;6178553;28;20026;-78
2021/09/03 13:35:29;;;;;;;6.50;5.60;;;28.30;70.40;;;;;;6178731;28;20034;-78
2021/09/03 13:38:30;;;;;;;6.97;6.07;;;28.30;67.00;;;;;;6177994;28;20149;-78
2021/09/03 13:41:31;;;;;;;7.80;5.47;;;28.30;67.00;;;;;;6195062;28;20026;-78
2021/09/03 13:44:31;;;;;;;5.80;5.22;;;28.40;68.40;;;;;;6162262;28;20035;-78
2021/09/03 13:47:32;;;;;;;9.47;5.90;;;28.40;67.60;;;;;;6162097;28;20050;-78
2021/09/03 13:50:34;;;;;;;8.30;5.80;;;28.40;67.60;;;;;;6146411;28;20105;-77
2021/09/03 13:53:35;;;;;;;7.63;6.15;;;28.50;67.50;;;;;;6177944;28;20026;-78
2021/09/03 13:56:37;;;;;;;6.83;5.43;;;28.50;66.80;;;;;;6196281;28;20500;-78
2021/09/03 13:59:38;;;;;;;6.93;6.22;;;28.40;68.10;;;;;;6195218;28;20453;-78
2021/09/03 14:02:39;;;;;;;8.50;5.90;;;28.30;67.10;;;;;;6178185;28;20022;-78
2021/09/03 14:05:41;;;;;;;7.57;5.90;;;28.30;68.20;;;;;;6195247;28;20046;-78
2021/09/03 14:08:43;;;;;;;6.78;5.88;;;28.20;66.90;;;;;;6161688;28;20596;-78
2021/09/03 14:11:45;;;;;;;;;;;28.00;68.00;;;;;;6178553;28;20033;-78
2021/09/03 14:14:46;;;;;;;7.60;5.38;;;27.70;69.70;;;;;;6177750;28;19995;-78
2021/09/03 14:17:46;;;;;;;7.05;5.85;;;27.70;69.70;;;;;;6177991;28;20038;-78
2021/09/03 14:20:47;;;;;;;6.80;6.10;;;27.80;70.40;;;;;;6177721;28;20085;-78
2021/09/03 14:23:47;;;;;;;6.63;5.50;;;27.70;68.90;;;;;;6177373;28;20993;-78
2021/09/03 14:26:48;;;;;;;7.10;6.17;;;27.50;70.60;;;;;;6177332;28;20097;-78
2021/09/03 14:29:49;;;;;;;7.17;5.63;;;27.70;69.50;;;;;;6194785;28;20508;-78
2021/09/03 14:32:49;;;;;;;6.47;5.83;;;27.70;69.10;;;;;;6194773;28;20073;-78
2021/09/03 14:35:50;;;;;;;7.07;5.60;;;27.80;67.70;;;;;;6161050;28;20070;-77
2021/09/03 14:38:50;;;;;;;6.33;5.60;;;27.70;68.60;;;;;;6160988;28;20042;-78
2021/09/03 14:41:51;;;;;;;6.80;6.10;;;27.70;70.40;;;;;;6160955;28;20022;-78
2021/09/03 14:44:52;;;;;;;6.63;5.90;;;27.80;70.50;;;;;;6194876;28;20108;-78
2021/09/03 14:47:52;;;;;;;7.07;5.77;;;27.80;68.40;;;;;;6176768;28;20038;-78
2021/09/03 14:50:53;;;;;;;9.43;5.60;;;27.80;70.90;;;;;;6194720;28;20030;-78
2021/09/03 14:53:53;;;;;;;11.43;6.90;;;27.80;68.40;;;;;;6176980;28;20445;-78
2021/09/03 14:56:54;;;;;;;19.67;9.50;;;27.70;68.20;;;;;;6194469;28;20069;-78
2021/09/03 14:59:55;;;;;;;9.67;6.70;;;27.70;68.50;;;;;;6192874;28;20759;-78
2021/09/03 15:02:55;;;;;;;11.60;6.20;;;27.70;66.20;;;;;;6176839;28;20374;-78
2021/09/03 15:05:56;;;;;;;10.17;6.60;;;27.60;68.30;;;;;;6176876;28;20138;-78
2021/09/03 15:08:56;;;;;;;10.20;6.83;;;27.60;66.40;;;;;;6176232;28;20054;-78
2021/09/03 15:11:57;;;;;;;10.40;6.10;;;27.50;67.60;;;;;;6176874;28;20018;-78
2021/09/03 15:14:58;;;;;;;11.60;6.33;;;27.40;68.40;;;;;;6160566;28;20019;-78
2021/09/03 15:17:58;;;;;;;10.10;6.50;;;27.30;68.50;;;;;;6194378;28;20041;-78
2021/09/03 15:20:59;;;;;;;6.67;5.57;;;27.40;83.80;;;;;;6176606;28;20019;-78
2021/09/03 15:24:00;;;;;;;6.50;5.60;;;27.30;69.70;;;;;;6160773;28;20046;-77
2021/09/03 15:27:00;;;;;;;7.63;5.40;;;27.40;81.80;;;;;;6193842;28;20085;-77
2021/09/03 15:30:01;;;;;;;6.23;5.40;;;27.50;92.00;;;;;;6160185;28;20096;-78
2021/09/03 15:33:02;;;;;;;5.70;4.90;;;27.40;91.60;;;;;;6144602;28;20046;-78
2021/09/03 15:36:03;;;;;;;7.23;5.63;;;27.20;82.30;;;;;;6160087;28;20026;-78
2021/09/03 15:39:04;;;;;;;7.20;5.17;;;27.20;93.30;;;;;;6176267;28;20373;-77
2021/09/03 15:42:04;;;;;;;5.63;4.97;;;27.20;93.10;;;;;;6160002;28;20029;-78
2021/09/03 15:45:06;;;;;;;8.80;5.30;;;27.30;83.30;;;;;;6194223;28;20635;-77
2021/09/03 15:48:07;;;;;;;6.47;5.78;;;27.40;94.00;;;;;;6160122;28;20093;-77
2021/09/03 15:51:07;;;;;;;6.60;5.90;;;27.10;82.30;;;;;;6176591;28;20022;-78
2021/09/03 15:54:08;;;;;;;6.07;5.03;;;;;;;;;;6160104;28;20034;-78
2021/09/03 15:57:09;;;;;;;6.15;5.18;;;26.90;79.40;;;;;;6194197;28;20120;-78
2021/09/03 16:00:12;;;;;;;7.18;6.00;;;26.80;80.10;;;;;;6176097;28;20049;-78
2021/09/03 16:03:13;;;;;;;8.18;5.15;;;26.80;93.90;;;;;;6193472;28;20049;-78
2021/09/03 16:06:14;;;;;;;7.30;5.40;;;26.80;86.10;;;;;;6179442;28;20030;-78